Weather at Salt Lake City International Airport

Public forecast

Using degrees Fahrenheit for public forecast. Weather courtesy of forecast.io.

Current aviation weather report (METAR) for Salt Lake City International Airport

2023/02/02 16:54 (retrieved 1 hour ago)

KSLC 021654Z 00000KT 5SM HZ CLR M02/M08 A3050 RMK AO2 SLP358 T10221083

Aviation forecast (TAF) for Salt Lake City International Airport

2023/02/02 15:57 Ammendment (retrieved 2 hours ago)

TAF AMD KSLC 021454Z 0215/0318 14003KT P6SM SKC FM021800 34004KT P6SM SKC FM030400 15003KT P6SM FEW250 FM030600 14003KT 5SM BR SCT200